Time;durP1;ratioP1;P1;durP2;ratioP2;P2;SDS_P1;SDS_P2;PMS_P1;PMS_P2;Temp;Humidity;BMP_temperature;BMP_pressure;BME280_temperature;BME280_humidity;BME280_pressure;Samples;Min_cycle;Max_cycle;Signal;HPM_P1;HPM_P2
2022/04/16 00:00:50;;;;;;;;;21.33;20.33;;;;;;;;5102808;27;45335;-75
2022/04/16 00:03:16;;;;;;;;;22.33;22.33;;;;;;;;5102887;27;45713;-76
2022/04/16 00:05:41;;;;;;;;;24.00;24.00;;;;;;;;5121185;27;45307;-76
2022/04/16 00:08:06;;;;;;;;;22.67;22.67;;;;;;;;5102366;27;47893;-76
2022/04/16 00:10:32;;;;;;;;;23.00;21.67;;;;;;;;5121140;27;45299;-76
2022/04/16 00:12:58;;;;;;;;;20.67;20.00;;;;;;;;5102442;27;45235;-76
2022/04/16 00:15:23;;;;;;;;;22.33;21.67;;;;;;;;5113667;27;45484;-76
2022/04/16 00:17:49;;;;;;;;;20.67;19.67;;;;;;;;5100428;27;45296;-76
2022/04/16 00:20:15;;;;;;;;;19.00;18.00;;;;;;;;5100595;27;45488;-76
2022/04/16 00:22:40;;;;;;;;;22.33;18.33;;;;;;;;5100057;27;45224;-76
2022/04/16 00:25:06;;;;;;;;;24.00;23.00;;;;;;;;5100292;27;45304;-76
2022/04/16 00:27:31;;;;;;;;;22.00;21.33;;;;;;;;5100303;27;45545;-76
2022/04/16 00:29:56;;;;;;;;;22.33;19.67;;;;;;;;5100268;27;45425;-76
2022/04/16 00:32:22;;;;;;;;;17.00;17.00;;;;;;;;5100341;27;45254;-76
2022/04/16 00:34:47;;;;;;;;;23.00;21.33;;;;;;;;5100131;27;45320;-76
2022/04/16 00:37:13;;;;;;;;;19.67;19.67;;;;;;;;5099732;27;45377;-76
2022/04/16 00:39:38;;;;;;;;;23.00;19.67;;;;;;;;5100194;27;45401;-75
2022/04/16 00:42:04;;;;;;;;;21.67;20.33;;;;;;;;5100288;27;45484;-76
2022/04/16 00:44:29;;;;;;;;;20.33;19.00;;;;;;;;5099954;27;45385;-76
2022/04/16 00:46:54;;;;;;;;;22.33;19.33;;;;;;;;5099985;27;45443;-76
2022/04/16 00:49:19;;;;;;;;;19.00;18.00;;;;;;;;5114108;27;45307;-76
2022/04/16 00:51:45;;;;;;;;;20.00;19.33;;;;;;;;5120482;27;45530;-76
2022/04/16 00:54:11;;;;;;;;;22.33;19.67;;;;;;;;5107208;27;47187;-76
2022/04/16 00:56:38;;;;;;;;;21.00;20.33;;;;;;;;5127278;27;46192;-76
2022/04/16 00:59:06;;;;;;;;;17.67;17.00;;;;;;;;5127445;27;45341;-76
2022/04/16 01:01:32;;;;;;;;;21.33;20.67;;;;;;;;5127414;27;45388;-76
2022/04/16 01:03:57;;;;;;;;;21.00;20.00;;;;;;;;5127048;27;45407;-76
2022/04/16 01:06:22;;;;;;;;;18.00;18.00;;;;;;;;5108575;27;47407;-76
2022/04/16 01:08:48;;;;;;;;;19.33;18.67;;;;;;;;5127492;27;45321;-76
2022/04/16 01:11:14;;;;;;;;;18.33;17.33;;;;;;;;5127300;27;45338;-76
2022/04/16 01:13:40;;;;;;;;;16.00;16.00;;;;;;;;5127186;27;45523;-76
2022/04/16 01:16:05;;;;;;;;;21.67;20.33;;;;;;;;5126972;27;45861;-76
2022/04/16 01:18:31;;;;;;;;;17.67;17.00;;;;;;;;5127335;27;45319;-76
2022/04/16 01:20:56;;;;;;;;;21.00;19.67;;;;;;;;5108637;27;45242;-76
2022/04/16 01:23:21;;;;;;;;;21.33;20.67;;;;;;;;5126755;27;45513;-76
2022/04/16 01:25:47;;;;;;;;;21.33;20.00;;;;;;;;5108276;27;46964;-75
2022/04/16 01:28:12;;;;;;;;;19.00;18.67;;;;;;;;5127096;27;45290;-76
2022/04/16 01:30:37;;;;;;;;;22.33;20.67;;;;;;;;5108418;27;45261;-76
2022/04/16 01:33:03;;;;;;;;;28.33;25.67;;;;;;;;5108235;27;45931;-75
2022/04/16 01:35:29;;;;;;;;;21.67;21.67;;;;;;;;5126818;27;45204;-76
2022/04/16 01:37:54;;;;;;;;;24.33;23.67;;;;;;;;5126675;27;45224;-76
2022/04/16 01:40:25;;;;;;;;;21.33;20.67;;;;;;;;5127142;27;45265;-75
2022/04/16 01:42:51;;;;;;;;;23.00;22.00;;;;;;;;5126930;27;45294;-76
2022/04/16 01:45:18;;;;;;;;;24.67;24.33;;;;;;;;5108183;27;47272;-76
2022/04/16 01:47:43;;;;;;;;;26.00;25.67;;;;;;;;5126683;27;45278;-76
2022/04/16 01:50:09;;;;;;;;;29.67;28.67;;;;;;;;5126934;27;45202;-76
2022/04/16 01:52:35;;;;;;;;;26.00;21.67;;;;;;;;5126613;27;45628;-76
2022/04/16 01:55:01;;;;;;;;;25.33;25.33;;;;;;;;5126658;27;46109;-76
2022/04/16 01:57:26;;;;;;;;;24.33;23.33;;;;;;;;5126963;27;45264;-76
2022/04/16 01:59:52;;;;;;;;;24.33;23.33;;;;;;;;5126897;27;45202;-75
2022/04/16 02:02:19;;;;;;;;;26.33;26.00;;;;;;;;5126773;27;45367;-76
2022/04/16 02:04:45;;;;;;;;;23.33;23.33;;;;;;;;5123730;27;46021;-76
2022/04/16 02:07:10;;;;;;;;;24.33;23.33;;;;;;;;5122916;27;45344;-76
2022/04/16 02:09:35;;;;;;;;;22.00;21.00;;;;;;;;5104974;27;45313;-76
2022/04/16 02:12:01;;;;;;;;;23.00;23.00;;;;;;;;5123140;27;45602;-76
2022/04/16 02:14:26;;;;;;;;;26.00;25.00;;;;;;;;5123198;27;45867;-77
2022/04/16 02:16:51;;;;;;;;;28.00;26.67;;;;;;;;5122671;27;45349;-76
2022/04/16 02:19:16;;;;;;;;;24.00;23.00;;;;;;;;5123219;27;45239;-76
2022/04/16 02:21:42;;;;;;;;;21.33;20.67;;;;;;;;5122755;27;45544;-76
2022/04/16 02:24:07;;;;;;;;;26.33;25.00;;;;;;;;5122732;27;45289;-76
2022/04/16 02:26:32;;;;;;;;;21.67;21.67;;;;;;;;5123061;27;45229;-75
2022/04/16 02:28:59;;;;;;;;;22.33;21.33;;;;;;;;5104539;27;45200;-76
2022/04/16 02:31:25;;;;;;;;;25.00;22.67;;;;;;;;5122933;27;45215;-76
2022/04/16 02:33:50;;;;;;;;;25.33;25.00;;;;;;;;5103987;27;47013;-76
2022/04/16 02:36:16;;;;;;;;;23.00;23.00;;;;;;;;5122444;27;45321;-75
2022/04/16 02:38:41;;;;;;;;;27.67;27.67;;;;;;;;5104379;27;45354;-76
2022/04/16 02:41:06;;;;;;;;;25.33;25.33;;;;;;;;5122616;27;45394;-76
2022/04/16 02:43:32;;;;;;;;;32.00;27.33;;;;;;;;5122661;27;45384;-76
2022/04/16 02:48:41;;;;;;;;;27.00;25.00;;;;;;;;5122661;27;45173;-76
2022/04/16 02:51:08;;;;;;;;;27.67;25.67;;;;;;;;5103840;27;46103;-75
2022/04/16 02:53:33;;;;;;;;;28.67;27.00;;;;;;;;5122471;27;45347;-76
2022/04/16 02:55:58;;;;;;;;;31.67;29.33;;;;;;;;5122294;27;45387;-75
2022/04/16 02:58:23;;;;;;;;;29.67;28.33;;;;;;;;5122613;27;45328;-76
2022/04/16 03:00:49;;;;;;;;;33.00;30.00;;;;;;;;5122398;27;45288;-76
2022/04/16 03:03:14;;;;;;;;;32.00;30.00;;;;;;;;5122113;27;45403;-76
2022/04/16 03:05:39;;;;;;;;;28.67;27.67;;;;;;;;5122171;27;45378;-76
2022/04/16 03:08:09;;;;;;;;;32.33;29.33;;;;;;;;5122162;27;45313;-75
2022/04/16 03:10:34;;;;;;;;;24.33;22.00;;;;;;;;5122198;27;45557;-76
2022/04/16 03:13:00;;;;;;;;;27.67;27.00;;;;;;;;5122071;27;45293;-76
2022/04/16 03:18:09;;;;;;;;;32.33;30.33;;;;;;;;5122051;27;45474;-75
2022/04/16 03:20:37;;;;;;;;;31.67;29.33;;;;;;;;5121797;27;45534;-76
2022/04/16 03:23:02;;;;;;;;;36.33;30.00;;;;;;;;5102763;27;47093;-76
2022/04/16 03:25:28;;;;;;;;;32.33;30.67;;;;;;;;5121786;27;45341;-76
2022/04/16 03:27:53;;;;;;;;;27.67;27.67;;;;;;;;5122142;27;45341;-75
2022/04/16 03:30:19;;;;;;;;;36.67;31.33;;;;;;;;5103039;27;47281;-75
2022/04/16 03:32:46;;;;;;;;;35.75;32.00;;;;;;;;5121681;27;45376;-76
2022/04/16 03:35:11;;;;;;;;;32.75;30.75;;;;;;;;5103180;27;45351;-75
2022/04/16 03:37:37;;;;;;;;;33.67;30.00;;;;;;;;5121766;27;45412;-76
2022/04/16 03:40:06;;;;;;;;;36.33;31.00;;;;;;;;5121644;27;45290;-76
2022/04/16 03:42:34;;;;;;;;;33.00;29.67;;;;;;;;5121659;27;46457;-76
2022/04/16 03:45:00;;;;;;;;;32.33;30.67;;;;;;;;5102693;27;45326;-76
2022/04/16 03:47:25;;;;;;;;;39.50;32.75;;;;;;;;5121701;27;45364;-75
2022/04/16 03:49:51;;;;;;;;;36.25;32.00;;;;;;;;5120994;27;45364;-76
2022/04/16 03:52:16;;;;;;;;;33.25;31.50;;;;;;;;5102666;27;47996;-76
2022/04/16 04:00:11;;;;;;;;;35.75;32.75;;;;;;;;5121138;27;45415;-76
2022/04/16 04:02:38;;;;;;;;;40.75;35.00;;;;;;;;5102784;27;46028;-76
2022/04/16 04:05:03;;;;;;;;;39.25;33.50;;;;;;;;5121191;27;45544;-76
2022/04/16 04:07:29;;;;;;;;;38.50;33.75;;;;;;;;5121039;27;45523;-76
2022/04/16 04:09:54;;;;;;;;;41.00;34.50;;;;;;;;5121342;27;45432;-76
2022/04/16 04:12:19;;;;;;;;;38.00;33.50;;;;;;;;5121057;27;46048;-76
2022/04/16 04:14:45;;;;;;;;;43.50;37.00;;;;;;;;5102245;27;45524;-76
2022/04/16 04:17:11;;;;;;;;;38.75;34.00;;;;;;;;5102803;27;45259;-76
2022/04/16 04:19:38;;;;;;;;;44.25;37.50;;;;;;;;5121206;27;45351;-76
2022/04/16 04:22:03;;;;;;;;;43.25;37.75;;;;;;;;5120531;27;45356;-76
2022/04/16 04:24:29;;;;;;;;;38.75;33.00;;;;;;;;5102207;27;45393;-76
2022/04/16 04:26:55;;;;;;;;;40.00;33.00;;;;;;;;5121031;27;45391;-76
2022/04/16 04:29:20;;;;;;;;;43.00;35.50;;;;;;;;5120067;27;45337;-75
2022/04/16 04:31:45;;;;;;;;;42.75;35.00;;;;;;;;5102270;27;48080;-75
2022/04/16 04:34:10;;;;;;;;;42.50;35.75;;;;;;;;5102002;27;45370;-76
2022/04/16 04:36:36;;;;;;;;;42.75;35.50;;;;;;;;5120696;27;45383;-76
2022/04/16 04:39:01;;;;;;;;;41.50;35.75;;;;;;;;5120906;27;45319;-76
2022/04/16 04:41:26;;;;;;;;;38.75;33.75;;;;;;;;5102090;27;46580;-76
2022/04/16 04:43:51;;;;;;;;;41.00;35.50;;;;;;;;5120809;27;45409;-76
2022/04/16 04:46:16;;;;;;;;;40.75;35.00;;;;;;;;5120798;27;45355;-76
2022/04/16 04:48:42;;;;;;;;;44.00;36.00;;;;;;;;5120667;27;45482;-76
2022/04/16 04:51:07;;;;;;;;;37.25;33.00;;;;;;;;5101884;27;46990;-76
2022/04/16 04:53:32;;;;;;;;;40.75;35.00;;;;;;;;5099472;27;45439;-75
2022/04/16 04:55:57;;;;;;;;;44.50;36.00;;;;;;;;5116251;27;45255;-75
2022/04/16 04:58:22;;;;;;;;;42.75;35.50;;;;;;;;5081654;27;46576;-75
2022/04/16 05:00:47;;;;;;;;;42.25;35.75;;;;;;;;5099793;27;45228;-75
2022/04/16 05:03:13;;;;;;;;;43.25;35.75;;;;;;;;5099861;27;45422;-76
2022/04/16 05:05:38;;;;;;;;;44.25;37.75;;;;;;;;5081538;27;45507;-76
2022/04/16 05:08:03;;;;;;;;;45.00;37.75;;;;;;;;5108505;27;45389;-75
2022/04/16 05:10:28;;;;;;;;;39.50;34.75;;;;;;;;5114652;27;46259;-75
2022/04/16 05:12:57;;;;;;;;;42.75;36.75;;;;;;;;5122661;27;45608;-75
2022/04/16 05:15:22;;;;;;;;;47.50;39.50;;;;;;;;5129263;27;45325;-76
2022/04/16 05:17:48;;;;;;;;;45.25;36.75;;;;;;;;5122111;27;45498;-77
2022/04/16 05:20:13;;;;;;;;;44.00;37.00;;;;;;;;5127753;27;45898;-77
2022/04/16 05:22:38;;;;;;;;;44.75;36.75;;;;;;;;5098075;27;45355;-76
2022/04/16 05:25:04;;;;;;;;;48.50;39.00;;;;;;;;5117914;27;45299;-76
2022/04/16 05:27:30;;;;;;;;;47.50;39.25;;;;;;;;5096290;27;45923;-76
2022/04/16 05:30:12;;;;;;;;;48.75;38.75;;;;;;;;5133896;27;45379;-76
2022/04/16 05:32:40;;;;;;;;;45.00;38.00;;;;;;;;5141097;27;45358;-76
2022/04/16 05:35:05;;;;;;;;;46.25;38.25;;;;;;;;5122107;27;45340;-76
2022/04/16 05:37:31;;;;;;;;;43.25;35.50;;;;;;;;5140428;27;45328;-77
2022/04/16 05:39:57;;;;;;;;;47.75;38.75;;;;;;;;5142836;27;45262;-76
2022/04/16 05:42:22;;;;;;;;;48.00;39.75;;;;;;;;5144296;27;45308;-77
2022/04/16 05:44:47;;;;;;;;;47.25;40.00;;;;;;;;5125615;27;45261;-77
2022/04/16 05:47:13;;;;;;;;;46.25;39.00;;;;;;;;5144363;27;45317;-77
2022/04/16 05:49:38;;;;;;;;;46.50;36.75;;;;;;;;5144218;27;45358;-76
2022/04/16 05:52:03;;;;;;;;;45.00;38.00;;;;;;;;5143824;27;45347;-76
2022/04/16 05:54:29;;;;;;;;;43.50;36.75;;;;;;;;5111606;27;45349;-76
2022/04/16 05:56:55;;;;;;;;;44.00;36.50;;;;;;;;5104801;27;46996;-76
2022/04/16 05:59:22;;;;;;;;;42.50;37.25;;;;;;;;5116623;27;48351;-76
2022/04/16 06:01:48;;;;;;;;;48.50;39.50;;;;;;;;5144126;27;45440;-76
2022/04/16 06:04:13;;;;;;;;;44.25;36.00;;;;;;;;5144004;27;45326;-77
2022/04/16 06:06:38;;;;;;;;;47.25;39.25;;;;;;;;5143628;27;45425;-76
2022/04/16 06:09:03;;;;;;;;;45.00;37.25;;;;;;;;5143889;27;45372;-76
2022/04/16 06:11:30;;;;;;;;;46.25;38.75;;;;;;;;5144432;27;45498;-76
2022/04/16 06:13:55;;;;;;;;;47.50;39.75;;;;;;;;5142875;27;45345;-76
2022/04/16 06:16:20;;;;;;;;;47.25;39.50;;;;;;;;5107913;27;47355;-76
2022/04/16 06:18:46;;;;;;;;;47.25;40.50;;;;;;;;5122715;27;45353;-76
2022/04/16 06:21:11;;;;;;;;;45.00;38.25;;;;;;;;5122940;27;45348;-76
2022/04/16 06:23:36;;;;;;;;;46.00;38.00;;;;;;;;5104378;27;45351;-76
2022/04/16 06:26:02;;;;;;;;;50.00;41.25;;;;;;;;5122624;27;45311;-76
2022/04/16 06:28:27;;;;;;;;;45.50;38.00;;;;;;;;5103942;27;47545;-76
2022/04/16 06:30:52;;;;;;;;;47.25;39.50;;;;;;;;5104330;27;45295;-76
2022/04/16 06:33:17;;;;;;;;;41.75;35.75;;;;;;;;5122522;27;45484;-76
2022/04/16 06:35:42;;;;;;;;;44.75;37.00;;;;;;;;5104218;27;46593;-76
2022/04/16 06:38:08;;;;;;;;;42.50;37.50;;;;;;;;5122209;27;45474;-76
2022/04/16 06:40:33;;;;;;;;;49.00;40.25;;;;;;;;5122664;27;45345;-75
2022/04/16 06:42:58;;;;;;;;;44.00;36.75;;;;;;;;5122697;27;45337;-76
2022/04/16 06:45:23;;;;;;;;;42.25;36.00;;;;;;;;5122434;27;45533;-76
2022/04/16 06:47:49;;;;;;;;;48.50;40.25;;;;;;;;5122253;27;45272;-76
2022/04/16 06:50:14;;;;;;;;;49.50;41.25;;;;;;;;5103805;27;45321;-76
2022/04/16 06:52:39;;;;;;;;;43.75;37.50;;;;;;;;5103337;27;45373;-76
2022/04/16 06:55:05;;;;;;;;;48.50;38.00;;;;;;;;5103890;27;45881;-76
2022/04/16 06:57:30;;;;;;;;;42.75;35.25;;;;;;;;5103613;27;47124;-76
2022/04/16 06:59:55;;;;;;;;;49.50;39.00;;;;;;;;5103713;27;45352;-76
2022/04/16 07:02:20;;;;;;;;;46.00;37.75;;;;;;;;5103941;27;45415;-76
2022/04/16 07:04:46;;;;;;;;;46.50;38.00;;;;;;;;5103663;27;46531;-76
2022/04/16 07:07:11;;;;;;;;;47.25;39.25;;;;;;;;5121892;27;45335;-76
2022/04/16 07:09:40;;;;;;;;;46.50;40.00;;;;;;;;5122315;27;45235;-76
2022/04/16 07:12:07;;;;;;;;;44.25;36.50;;;;;;;;5103811;27;45348;-76
2022/04/16 07:14:33;;;;;;;;;48.25;39.50;;;;;;;;5121864;27;45460;-76
2022/04/16 07:16:58;;;;;;;;;44.25;37.25;;;;;;;;5121961;27;46243;-76
2022/04/16 07:19:23;;;;;;;;;47.50;39.00;;;;;;;;5103359;27;46306;-76
2022/04/16 07:21:49;;;;;;;;;46.25;38.00;;;;;;;;5121908;27;45306;-76
2022/04/16 07:24:14;;;;;;;;;45.50;38.75;;;;;;;;5103210;27;45988;-76
2022/04/16 07:26:39;;;;;;;;;48.00;39.75;;;;;;;;5103374;27;47178;-76
2022/04/16 07:29:04;;;;;;;;;46.00;37.75;;;;;;;;5122026;27;45335;-76
2022/04/16 07:31:30;;;;;;;;;42.75;37.25;;;;;;;;5122161;27;45241;-76
2022/04/16 07:33:55;;;;;;;;;41.25;35.00;;;;;;;;5121634;27;45292;-76
2022/04/16 07:36:20;;;;;;;;;46.25;38.00;;;;;;;;5121603;27;45443;-76
2022/04/16 07:38:45;;;;;;;;;43.50;36.75;;;;;;;;5121646;27;45345;-76
2022/04/16 07:41:10;;;;;;;;;45.75;37.75;;;;;;;;5121975;27;45315;-76
2022/04/16 07:43:36;;;;;;;;;45.50;38.25;;;;;;;;5121662;27;45350;-76
2022/04/16 07:46:01;;;;;;;;;45.00;37.75;;;;;;;;5121502;27;45230;-76
2022/04/16 07:48:26;;;;;;;;;44.25;37.25;;;;;;;;5121462;27;45294;-76
2022/04/16 07:50:51;;;;;;;;;41.25;36.00;;;;;;;;5103039;27;45250;-76
2022/04/16 07:53:17;;;;;;;;;45.50;37.75;;;;;;;;5121378;27;45321;-77
2022/04/16 07:55:42;;;;;;;;;46.50;38.75;;;;;;;;5121494;27;46007;-76
2022/04/16 07:58:07;;;;;;;;;45.50;37.50;;;;;;;;5121483;27;45409;-76
2022/04/16 08:00:32;;;;;;;;;45.25;37.50;;;;;;;;5121646;27;45309;-76
2022/04/16 08:02:58;;;;;;;;;38.50;31.75;;;;;;;;5101629;27;46585;-76
2022/04/16 08:05:23;;;;;;;;;39.75;34.75;;;;;;;;5102693;27;46947;-75
2022/04/16 08:07:49;;;;;;;;;41.00;35.75;;;;;;;;5121003;27;45306;-77
2022/04/16 08:10:14;;;;;;;;;44.00;37.00;;;;;;;;5121554;27;45325;-77
2022/04/16 08:12:40;;;;;;;;;39.25;32.25;;;;;;;;5121428;27;45546;-76
2022/04/16 08:15:06;;;;;;;;;38.67;34.33;;;;;;;;5102263;27;47943;-76
2022/04/16 08:17:31;;;;;;;;;42.75;36.00;;;;;;;;5102669;27;45283;-76
2022/04/16 08:19:57;;;;;;;;;45.25;37.00;;;;;;;;5102772;27;45295;-76
2022/04/16 08:22:22;;;;;;;;;44.00;36.00;;;;;;;;5119676;27;45304;-76
2022/04/16 08:27:39;;;;;;;;;37.50;33.00;;;;;;;;5088799;27;45556;-76
2022/04/16 08:30:07;;;;;;;;;42.33;34.67;;;;;;;;5121014;27;45304;-76
2022/04/16 08:32:36;;;;;;;;;35.33;31.67;;;;;;;;5101977;27;46424;-77
2022/04/16 08:35:01;;;;;;;;;34.33;31.00;;;;;;;;5112108;27;47199;-77
2022/04/16 08:37:26;;;;;;;;;34.00;30.67;;;;;;;;5098339;27;45240;-76
2022/04/16 08:39:52;;;;;;;;;37.33;32.67;;;;;;;;5080280;27;45492;-78
2022/04/16 08:42:18;;;;;;;;;45.00;35.75;;;;;;;;5098613;27;45510;-76
2022/04/16 08:44:43;;;;;;;;;37.67;33.00;;;;;;;;5079912;27;48474;-74
2022/04/16 08:47:09;;;;;;;;;39.67;33.33;;;;;;;;5098455;27;45325;-77
2022/04/16 08:49:34;;;;;;;;;38.25;34.00;;;;;;;;5081115;27;45279;-77
2022/04/16 08:51:59;;;;;;;;;36.33;31.33;;;;;;;;5081634;27;46278;-73
2022/04/16 08:54:25;;;;;;;;;37.33;33.00;;;;;;;;5107871;27;45664;-77
2022/04/16 08:56:50;;;;;;;;;37.50;31.75;;;;;;;;5108132;27;45449;-77
2022/04/16 08:59:16;;;;;;;;;34.67;31.33;;;;;;;;5102251;27;45775;-74
2022/04/16 09:01:41;;;;;;;;;38.33;33.00;;;;;;;;5120083;27;45448;-76
2022/04/16 09:04:06;;;;;;;;;35.00;31.67;;;;;;;;5117160;27;45473;-74
2022/04/16 09:06:31;;;;;;;;;41.00;34.33;;;;;;;;5080250;27;46287;-76
2022/04/16 09:08:57;;;;;;;;;36.67;30.67;;;;;;;;5084146;27;45374;-77
2022/04/16 09:11:23;;;;;;;;;33.33;30.00;;;;;;;;5081324;27;46088;-78
2022/04/16 09:13:49;;;;;;;;;39.00;33.00;;;;;;;;5100556;27;45392;-78
2022/04/16 09:16:14;;;;;;;;;39.33;33.67;;;;;;;;5098321;27;45911;-78
2022/04/16 09:18:46;;;;;;;;;41.33;34.00;;;;;;;;5124313;27;45535;-74
2022/04/16 09:21:13;;;;;;;;;38.67;33.00;;;;;;;;5120788;27;45309;-75
2022/04/16 09:23:43;;;;;;;;;39.67;33.00;;;;;;;;5113007;27;45358;-75
2022/04/16 09:26:08;;;;;;;;;37.00;31.00;;;;;;;;5116022;27;45316;-75
2022/04/16 09:28:42;;;;;;;;;42.00;36.00;;;;;;;;5128518;27;45383;-75
2022/04/16 09:31:07;;;;;;;;;42.25;34.00;;;;;;;;5124347;27;45950;-75
2022/04/16 09:33:36;;;;;;;;;37.67;33.33;;;;;;;;5143235;27;45541;-73
2022/04/16 09:36:01;;;;;;;;;38.33;33.00;;;;;;;;5116796;27;45405;-75
2022/04/16 09:38:33;;;;;;;;;39.67;34.33;;;;;;;;5084620;27;45243;-74
2022/04/16 09:41:03;;;;;;;;;37.33;32.33;;;;;;;;5103063;27;45451;-75
2022/04/16 09:43:35;;;;;;;;;39.33;33.33;;;;;;;;5084321;27;47127;-74
2022/04/16 09:46:12;;;;;;;;;35.00;31.33;;;;;;;;5102622;27;45236;-74
2022/04/16 09:48:38;;;;;;;;;33.00;30.33;;;;;;;;5108211;27;46506;-74
2022/04/16 09:51:07;;;;;;;;;38.00;31.00;;;;;;;;5117242;27;45495;-76
2022/04/16 09:53:36;;;;;;;;;41.00;34.33;;;;;;;;5122111;27;46028;-75
2022/04/16 09:56:01;;;;;;;;;36.67;31.33;;;;;;;;5103432;27;45278;-75
2022/04/16 09:58:34;;;;;;;;;32.00;30.00;;;;;;;;5101610;27;45345;-75
2022/04/16 10:01:00;;;;;;;;;30.00;28.67;;;;;;;;5102213;27;45342;-76
2022/04/16 10:03:26;;;;;;;;;19.00;17.67;;;;;;;;5083661;27;47418;-75
2022/04/16 10:05:51;;;;;;;;;20.67;19.67;;;;;;;;5102482;27;45295;-75
2022/04/16 10:08:17;;;;;;;;;19.33;18.33;;;;;;;;5084174;27;45319;-74
2022/04/16 10:10:46;;;;;;;;;17.33;17.00;;;;;;;;5084183;27;46174;-74
2022/04/16 10:13:14;;;;;;;;;20.00;20.00;;;;;;;;5102528;27;45303;-74
2022/04/16 10:15:45;;;;;;;;;15.00;15.00;;;;;;;;5111549;27;45350;-75
2022/04/16 10:18:11;;;;;;;;;18.00;18.00;;;;;;;;5123064;27;45251;-75
2022/04/16 10:20:36;;;;;;;;;18.00;16.33;;;;;;;;5104285;27;46357;-75
2022/04/16 10:23:07;;;;;;;;;15.00;15.00;;;;;;;;5122524;27;45436;-75
2022/04/16 10:25:41;;;;;;;;;18.33;17.00;;;;;;;;5121957;27;45358;-74
2022/04/16 10:28:08;;;;;;;;;13.00;12.67;;;;;;;;5104233;27;45457;-74
2022/04/16 10:30:36;;;;;;;;;15.67;14.67;;;;;;;;5122616;27;45329;-74
2022/04/16 10:33:03;;;;;;;;;11.00;11.00;;;;;;;;5122387;27;45665;-74
2022/04/16 10:35:28;;;;;;;;;12.00;12.00;;;;;;;;5123271;27;45344;-75
2022/04/16 10:37:54;;;;;;;;;13.33;12.00;;;;;;;;5122671;27;45362;-76
2022/04/16 10:40:20;;;;;;;;;13.33;13.33;;;;;;;;5104556;27;46009;-75
2022/04/16 10:42:57;;;;;;;;;9.67;9.67;;;;;;;;5122616;27;45339;-76
2022/04/16 10:45:22;;;;;;;;;11.00;10.00;;;;;;;;5122720;27;45270;-76
2022/04/16 10:47:49;;;;;;;;;17.33;17.33;;;;;;;;5103843;27;45350;-75
2022/04/16 10:50:15;;;;;;;;;11.33;10.67;;;;;;;;5117236;27;45439;-75
2022/04/16 10:52:50;;;;;;;;;12.67;11.67;;;;;;;;5114383;27;45393;-75
2022/04/16 10:55:16;;;;;;;;;12.67;12.33;;;;;;;;5082833;27;45305;-74
2022/04/16 10:57:42;;;;;;;;;10.67;9.67;;;;;;;;5107505;27;45396;-76
2022/04/16 11:00:13;;;;;;;;;11.00;11.00;;;;;;;;5101103;27;45172;-74
2022/04/16 11:02:39;;;;;;;;;13.00;12.00;;;;;;;;5101165;27;46682;-74
2022/04/16 11:05:11;;;;;;;;;12.00;12.00;;;;;;;;5101122;27;45328;-76
2022/04/16 11:07:37;;;;;;;;;9.00;9.00;;;;;;;;5101636;27;45423;-77
2022/04/16 11:10:04;;;;;;;;;9.67;9.67;;;;;;;;5083109;27;47341;-75
2022/04/16 11:12:29;;;;;;;;;12.00;11.00;;;;;;;;5101588;27;46394;-76
2022/04/16 11:14:55;;;;;;;;;9.00;9.00;;;;;;;;5102420;27;45346;-76
2022/04/16 11:17:20;;;;;;;;;10.00;8.67;;;;;;;;5122142;27;45467;-76
2022/04/16 11:19:48;;;;;;;;;13.00;12.67;;;;;;;;5122140;27;45481;-75
2022/04/16 11:22:14;;;;;;;;;12.00;11.67;;;;;;;;5103021;27;47246;-75
2022/04/16 11:24:39;;;;;;;;;12.00;11.00;;;;;;;;5103241;27;46265;-75
2022/04/16 11:35:22;;;;;;;;;12.67;10.00;;;;;;;;5101545;27;45434;-76
2022/04/16 11:37:54;;;;;;;;;10.67;10.67;;;;;;;;5098915;27;45419;-75
2022/04/16 11:40:19;;;;;;;;;9.00;9.00;;;;;;;;5107991;27;45385;-75
2022/04/16 11:42:44;;;;;;;;;11.33;10.67;;;;;;;;5099505;27;45528;-77
2022/04/16 11:45:10;;;;;;;;;7.67;7.67;;;;;;;;5099600;27;45474;-76
2022/04/16 11:47:36;;;;;;;;;10.67;9.33;;;;;;;;5099465;27;45330;-77
2022/04/16 11:50:06;;;;;;;;;10.33;10.33;;;;;;;;5099052;27;45253;-76
2022/04/16 11:52:32;;;;;;;;;11.67;11.67;;;;;;;;5080725;27;47664;-77
2022/04/16 11:55:03;;;;;;;;;6.33;6.33;;;;;;;;5109166;27;45278;-75
2022/04/16 11:57:28;;;;;;;;;7.33;6.00;;;;;;;;5115487;27;45323;-75
2022/04/16 12:00:03;;;;;;;;;3.67;3.00;;;;;;;;5101014;27;47874;-75
2022/04/16 12:02:29;;;;;;;;;5.00;4.00;;;;;;;;5115071;27;45272;-75
2022/04/16 12:04:54;;;;;;;;;5.00;5.00;;;;;;;;5116269;27;45294;-74
2022/04/16 12:07:20;;;;;;;;;2.00;2.00;;;;;;;;5104335;27;45132;-76
2022/04/16 12:09:46;;;;;;;;;2.67;2.67;;;;;;;;5082412;27;46313;-75
2022/04/16 12:12:15;;;;;;;;;2.67;2.67;;;;;;;;5089548;27;47725;-75
2022/04/16 12:14:51;;;;;;;;;5.00;5.00;;;;;;;;5118440;27;45330;-75
2022/04/16 12:17:27;;;;;;;;;4.00;4.00;;;;;;;;5116478;27;45594;-76
2022/04/16 12:19:55;;;;;;;;;3.00;3.00;;;;;;;;5111425;27;45512;-75
2022/04/16 12:22:21;;;;;;;;;9.00;9.00;;;;;;;;5108201;27;45276;-75
2022/04/16 12:24:46;;;;;;;;;8.33;8.33;;;;;;;;5125973;27;45375;-76
2022/04/16 12:27:11;;;;;;;;;7.00;7.00;;;;;;;;5142302;27;45408;-75
2022/04/16 12:29:36;;;;;;;;;5.33;5.33;;;;;;;;5123295;27;47045;-75
2022/04/16 12:32:03;;;;;;;;;2.00;2.00;;;;;;;;5141436;27;46197;-75
2022/04/16 12:34:28;;;;;;;;;3.00;3.00;;;;;;;;5141631;27;45281;-75
2022/04/16 12:36:53;;;;;;;;;3.67;3.67;;;;;;;;5122843;27;45439;-75
2022/04/16 12:39:18;;;;;;;;;4.00;3.33;;;;;;;;5122916;27;46038;-75
2022/04/16 12:41:44;;;;;;;;;5.33;5.33;;;;;;;;5141606;27;46053;-75
2022/04/16 12:44:09;;;;;;;;;9.67;9.67;;;;;;;;5141591;27;45320;-75
2022/04/16 12:46:34;;;;;;;;;5.00;5.00;;;;;;;;5099798;27;45609;-75
2022/04/16 12:48:59;;;;;;;;;9.00;9.00;;;;;;;;5115209;27;46255;-75
2022/04/16 12:51:26;;;;;;;;;10.00;7.33;;;;;;;;5126307;27;45357;-75
2022/04/16 12:53:51;;;;;;;;;7.00;7.00;;;;;;;;5141680;27;45440;-76
2022/04/16 12:56:17;;;;;;;;;10.00;9.33;;;;;;;;5141663;27;45301;-76
2022/04/16 12:58:42;;;;;;;;;5.33;5.33;;;;;;;;5122718;27;46273;-75
2022/04/16 13:01:07;;;;;;;;;10.67;10.67;;;;;;;;5122689;27;47535;-74
2022/04/16 13:03:32;;;;;;;;;8.00;7.00;;;;;;;;5132546;27;45465;-75
2022/04/16 13:05:58;;;;;;;;;9.67;9.00;;;;;;;;5120209;27;45356;-75
2022/04/16 13:08:24;;;;;;;;;7.33;6.33;;;;;;;;5105307;27;45367;-75
2022/04/16 13:10:49;;;;;;;;;7.00;7.00;;;;;;;;5110943;27;46180;-78
2022/04/16 13:13:14;;;;;;;;;6.33;6.33;;;;;;;;5141283;27;45206;-77
2022/04/16 13:15:39;;;;;;;;;3.00;3.00;;;;;;;;5131886;27;45326;-77
2022/04/16 13:18:06;;;;;;;;;6.33;5.67;;;;;;;;5120308;27;45264;-75
2022/04/16 13:20:31;;;;;;;;;7.67;6.67;;;;;;;;5119889;27;45399;-78
2022/04/16 13:22:56;;;;;;;;;7.33;6.00;;;;;;;;5119652;27;45312;-77
2022/04/16 13:25:22;;;;;;;;;7.00;7.00;;;;;;;;5101605;27;45392;-78
2022/04/16 13:27:47;;;;;;;;;7.00;6.00;;;;;;;;5119923;27;45276;-79
2022/04/16 13:30:12;;;;;;;;;3.00;3.00;;;;;;;;5100256;27;47245;-78
2022/04/16 13:32:37;;;;;;;;;6.00;6.00;;;;;;;;5098876;27;45993;-78
2022/04/16 13:35:03;;;;;;;;;3.33;3.33;;;;;;;;5118347;27;45511;-76
2022/04/16 13:37:28;;;;;;;;;7.33;6.33;;;;;;;;5117770;27;45765;-77
2022/04/16 13:42:37;;;;;;;;;6.33;6.33;;;;;;;;5103246;27;45329;-77
2022/04/16 13:45:02;;;;;;;;;7.00;7.00;;;;;;;;5100498;27;45657;-77
2022/04/16 13:47:28;;;;;;;;;5.33;5.33;;;;;;;;5119670;27;45499;-79
2022/04/16 13:49:53;;;;;;;;;5.00;5.00;;;;;;;;5101091;27;47314;-78
2022/04/16 13:52:19;;;;;;;;;7.00;7.00;;;;;;;;5119693;27;45354;-77
2022/04/16 13:54:44;;;;;;;;;5.00;5.00;;;;;;;;5097765;27;45562;-78
2022/04/16 13:57:09;;;;;;;;;4.67;4.67;;;;;;;;5107846;27;45507;-78
2022/04/16 13:59:35;;;;;;;;;6.33;6.33;;;;;;;;5096833;27;48219;-78
2022/04/16 14:02:01;;;;;;;;;5.00;5.00;;;;;;;;5114085;27;45785;-78
2022/04/16 14:05:42;;;;;;;;;3.00;3.00;;;;;;;;5105349;27;45598;-77
2022/04/16 14:07:11;;;;;;;;;5.33;5.33;;;;;;;;5109201;27;45519;-77
2022/04/16 14:09:37;;;;;;;;;4.00;4.00;;;;;;;;5113883;27;45355;-78
2022/04/16 14:12:02;;;;;;;;;3.00;3.00;;;;;;;;5111659;27;45421;-78
2022/04/16 14:14:29;;;;;;;;;5.67;5.67;;;;;;;;5105119;27;45406;-77
2022/04/16 14:16:54;;;;;;;;;7.00;7.00;;;;;;;;5112011;27;45338;-76
2022/04/16 14:19:19;;;;;;;;;3.67;3.67;;;;;;;;5112841;27;45801;-78
2022/04/16 14:21:45;;;;;;;;;4.33;4.33;;;;;;;;5103488;27;46073;-78
2022/04/16 14:24:10;;;;;;;;;3.67;3.67;;;;;;;;5106682;27;45225;-77
2022/04/16 14:26:37;;;;;;;;;4.33;4.00;;;;;;;;5107463;27;45231;-77
2022/04/16 14:29:02;;;;;;;;;8.00;8.00;;;;;;;;5113529;27;45404;-77
2022/04/16 14:31:27;;;;;;;;;5.33;5.33;;;;;;;;5103670;27;46213;-78
2022/04/16 14:33:53;;;;;;;;;3.33;3.33;;;;;;;;5111574;27;45331;-78
2022/04/16 14:36:19;;;;;;;;;4.00;4.00;;;;;;;;5085608;27;46133;-78
2022/04/16 14:38:44;;;;;;;;;6.00;6.00;;;;;;;;5113399;27;45544;-78
2022/04/16 14:41:10;;;;;;;;;5.33;5.33;;;;;;;;5113556;27;45362;-79